Time;durP1;ratioP1;P1;durP2;ratioP2;P2;SDS_P1;SDS_P2;PMS_P1;PMS_P2;Temp;Humidity;BMP_temperature;BMP_pressure;BME280_temperature;BME280_humidity;BME280_pressure;Samples;Min_cycle;Max_cycle;Signal;HPM_P1;HPM_P2
2023/02/09 00:01:09;;;;;;;;;;;;;;;;;;5134917;27;20069;-70
2023/02/09 00:03:34;;;;;;;;;;;;;;;;;;5135395;27;19950;-69
2023/02/09 00:06:00;;;;;;;;;;;;;;;;;;5134842;27;19952;-70
2023/02/09 00:08:26;;;;;;;;;;;;;;;;;;5134519;27;20356;-69
2023/02/09 00:10:52;;;;;;;;;;;;;;;;;;5135047;27;19994;-71
2023/02/09 00:13:21;;;;;;;;;;;;;;;;;;5134675;27;20021;-71
2023/02/09 00:15:47;;;;;;;;;;;;;;;;;;5134647;27;19973;-71
2023/02/09 00:18:13;;;;;;;;;;;;;;;;;;5135297;28;20414;-69
2023/02/09 00:20:39;;;;;;;;;;;;;;;;;;5134695;28;19956;-70
2023/02/09 00:23:05;;;;;;;;;;;;;;;;;;5134655;28;20048;-70
2023/02/09 00:25:31;;;;;;;;;;;;;;;;;;5134916;28;20381;-71
2023/02/09 00:27:57;;;;;;;;;;;;;;;;;;5134577;28;19948;-70
2023/02/09 00:30:23;;;;;;;;;;;;;;;;;;5134577;28;20410;-70
2023/02/09 00:32:48;;;;;;;;;;;;;;;;;;5134850;28;19963;-70
2023/02/09 00:35:14;;;;;;;;;;;;;;;;;;5134445;28;19971;-70
2023/02/09 00:37:40;;;;;;;;;;;;;;;;;;5136057;27;20314;-71
2023/02/09 00:40:06;;;;;;;;;;;;;;;;;;5138702;27;19949;-69
2023/02/09 00:42:32;;;;;;;;;;;;;;;;;;5139156;27;20437;-70
2023/02/09 00:44:58;;;;;;;;;;;;;;;;;;5138854;27;19954;-69
2023/02/09 00:47:24;;;;;;;;;;;;;;;;;;5138502;27;20400;-69
2023/02/09 00:49:50;;;;;;;;;;;;;;;;;;5138513;27;19959;-69
2023/02/09 00:52:16;;;;;;;;;;;;;;;;;;5138733;27;19952;-69
2023/02/09 00:54:42;;;;;;;;;;;;;;;;;;5138297;27;20094;-72
2023/02/09 00:57:08;;;;;;;;;;;;;;;;;;5138550;27;19954;-69
2023/02/09 00:59:34;;;;;;;;;;;;;;;;;;5138333;27;19946;-69
2023/02/09 01:02:00;;;;;;;;;;;;;;;;;;5138787;27;19972;-70
2023/02/09 01:04:26;;;;;;;;;;;;;;;;;;5138193;27;20033;-69
2023/02/09 01:06:52;;;;;;;;;;;;;;;;;;5138150;27;20292;-70
2023/02/09 01:09:17;;;;;;;;;;;;;;;;;;5137993;27;19989;-70
2023/02/09 01:11:43;;;;;;;;;;;;;;;;;;5138087;27;20365;-71
2023/02/09 01:14:10;;;;;;;;;;;;;;;;;;5138118;27;20323;-70
2023/02/09 01:16:36;;;;;;;;;;;;;;;;;;5138243;27;19945;-70
2023/02/09 01:19:02;;;;;;;;;;;;;;;;;;5137948;27;19983;-70
2023/02/09 01:21:28;;;;;;;;;;;;;;;;;;5138168;27;19958;-69
2023/02/09 01:23:54;;;;;;;;;;;;;;;;;;5137820;27;19951;-70
2023/02/09 01:26:20;;;;;;;;;;;;;;;;;;5137784;27;19995;-69
2023/02/09 01:28:46;;;;;;;;;;;;;;;;;;5138059;27;20439;-70
2023/02/09 01:31:12;;;;;;;;;;;;;;;;;;5137709;27;19951;-71
2023/02/09 01:33:38;;;;;;;;;;;;;;;;;;5138208;27;20407;-72
2023/02/09 01:36:04;;;;;;;;;;;;;;;;;;5137804;27;20115;-71
2023/02/09 01:38:29;;;;;;;;;;;;;;;;;;5137544;27;20429;-70
2023/02/09 01:40:55;;;;;;;;;;;;;;;;;;5137498;27;19949;-71
2023/02/09 01:43:21;;;;;;;;;;;;;;;;;;5137429;27;20309;-71
2023/02/09 01:45:48;;;;;;;;;;;;;;;;;;5137405;27;19958;-70
2023/02/09 01:48:14;;;;;;;;;;;;;;;;;;5137666;27;19999;-70
2023/02/09 01:50:40;;;;;;;;;;;;;;;;;;5136660;27;20360;-70
2023/02/09 01:53:06;;;;;;;;;;;;;;;;;;5137343;27;19952;-70
2023/02/09 01:55:32;;;;;;;;;;;;;;;;;;5137478;27;19971;-70
2023/02/09 01:57:58;;;;;;;;;;;;;;;;;;5137482;27;19957;-70
2023/02/09 02:00:24;;;;;;;;;;;;;;;;;;5137136;27;20421;-69
2023/02/09 02:02:50;;;;;;;;;;;;;;;;;;5137096;27;19947;-70
2023/02/09 02:05:15;;;;;;;;;;;;;;;;;;5137347;27;19949;-70
2023/02/09 02:07:41;;;;;;;;;;;;;;;;;;5136999;27;20318;-70
2023/02/09 02:10:07;;;;;;;;;;;;;;;;;;5136592;27;20039;-70
2023/02/09 02:12:33;;;;;;;;;;;;;;;;;;5137445;27;19989;-70
2023/02/09 02:14:59;;;;;;;;;;;;;;;;;;5136742;27;19970;-71
2023/02/09 02:17:25;;;;;;;;;;;;;;;;;;5137397;27;20004;-70
2023/02/09 02:19:51;;;;;;;;;;;;;;;;;;5136748;27;19949;-69
2023/02/09 02:22:17;;;;;;;;;;;;;;;;;;5137281;27;20397;-70
2023/02/09 02:24:43;;;;;;;;;;;;;;;;;;5136966;27;19951;-71
2023/02/09 02:27:09;;;;;;;;;;;;;;;;;;5136642;27;20483;-70
2023/02/09 02:29:35;;;;;;;;;;;;;;;;;;5137197;27;19947;-70
2023/02/09 02:32:01;;;;;;;;;;;;;;;;;;5136767;27;20304;-70
2023/02/09 02:34:27;;;;;;;;;;;;;;;;;;5136653;27;20015;-71
2023/02/09 02:36:54;;;;;;;;;;;;;;;;;;5136716;27;19954;-70
2023/02/09 02:39:21;;;;;;;;;;;;;;;;;;5136950;27;19948;-69
2023/02/09 02:44:31;;;;;;;;;;;;;;;;;;5136071;27;20043;-70
2023/02/09 02:46:57;;;;;;;;;;;;;;;;;;5136510;27;19955;-70
2023/02/09 02:49:23;;;;;;;;;;;;;;;;;;5136123;27;19955;-70
2023/02/09 02:51:49;;;;;;;;;;;;;;;;;;5136750;27;20050;-70
2023/02/09 02:54:15;;;;;;;;;;;;;;;;;;5135994;27;19953;-70
2023/02/09 02:56:41;;;;;;;;;;;;;;;;;;5136256;27;19993;-70
2023/02/09 02:59:07;;;;;;;;;;;;;;;;;;5136520;27;19952;-70
2023/02/09 03:01:33;;;;;;;;;;;;;;;;;;5135124;27;19964;-70
2023/02/09 03:03:59;;;;;;;;;;;;;;;;;;5135909;27;20428;-71
2023/02/09 03:06:25;;;;;;;;;;;;;;;;;;5136063;27;20000;-70
2023/02/09 03:08:51;;;;;;;;;;;;;;;;;;5135726;27;19992;-70
2023/02/09 03:11:17;;;;;;;;;;;;;;;;;;5135744;27;19952;-69
2023/02/09 03:13:43;;;;;;;;;;;;;;;;;;5136202;27;20366;-70
2023/02/09 03:16:09;;;;;;;;;;;;;;;;;;5135528;27;20126;-70
2023/02/09 03:18:35;;;;;;;;;;;;;;;;;;5135839;27;19951;-71
2023/02/09 03:21:01;;;;;;;;;;;;;;;;;;5135823;27;19997;-70
2023/02/09 03:23:27;;;;;;;;;;;;;;;;;;5135448;27;20394;-70
2023/02/09 03:25:53;;;;;;;;;;;;;;;;;;5135744;27;19953;-70
2023/02/09 03:28:19;;;;;;;;;;;;;;;;;;5135403;27;19954;-70
2023/02/09 03:30:45;;;;;;;;;;;;;;;;;;5135420;27;19950;-69
2023/02/09 03:33:11;;;;;;;;;;;;;;;;;;5135635;27;19952;-70
2023/02/09 03:35:36;;;;;;;;;;;;;;;;;;5135151;27;19972;-70
2023/02/09 03:38:05;;;;;;;;;;;;;;;;;;5135818;27;19958;-70
2023/02/09 03:40:31;;;;;;;;;;;;;;;;;;5135192;27;20292;-69
2023/02/09 03:42:57;;;;;;;;;;;;;;;;;;5135754;27;19992;-71
2023/02/09 03:45:23;;;;;;;;;;;;;;;;;;5135181;27;19997;-70
2023/02/09 03:47:49;;;;;;;;;;;;;;;;;;5135647;27;20304;-69
2023/02/09 03:50:15;;;;;;;;;;;;;;;;;;5135368;27;19947;-69
2023/02/09 03:52:41;;;;;;;;;;;;;;;;;;5134934;27;20400;-70
2023/02/09 03:55:07;;;;;;;;;;;;;;;;;;5135226;27;20015;-69
2023/02/09 03:57:32;;;;;;;;;;;;;;;;;;5134991;27;19981;-70
2023/02/09 04:00:00;;;;;;;;;;;;;;;;;;5135499;27;20407;-71
2023/02/09 04:02:26;;;;;;;;;;;;;;;;;;5134834;27;19953;-70
2023/02/09 04:04:52;;;;;;;;;;;;;;;;;;5135120;27;19977;-69
2023/02/09 04:07:18;;;;;;;;;;;;;;;;;;5134835;27;20000;-70
2023/02/09 04:09:44;;;;;;;;;;;;;;;;;;5134692;27;19990;-69
2023/02/09 04:12:10;;;;;;;;;;;;;;;;;;5134762;27;19981;-70
2023/02/09 04:14:36;;;;;;;;;;;;;;;;;;5134895;27;19981;-69
2023/02/09 04:17:01;;;;;;;;;;;;;;;;;;5135002;27;19994;-71
2023/02/09 04:19:27;;;;;;;;;;;;;;;;;;5134689;28;19946;-69
2023/02/09 04:21:53;;;;;;;;;;;;;;;;;;5135231;28;20448;-70
2023/02/09 04:24:20;;;;;;;;;;;;;;;;;;5134649;28;20470;-69
2023/02/09 04:26:46;;;;;;;;;;;;;;;;;;5134892;28;20417;-70
2023/02/09 04:29:12;;;;;;;;;;;;;;;;;;5134546;28;19951;-70
2023/02/09 04:31:38;;;;;;;;;;;;;;;;;;5134843;28;19952;-68
2023/02/09 04:34:04;;;;;;;;;;;;;;;;;;5134457;28;19962;-69
2023/02/09 04:36:30;;;;;;;;;;;;;;;;;;5134566;28;20080;-69
2023/02/09 04:38:56;;;;;;;;;;;;;;;;;;5135060;28;20312;-70
2023/02/09 04:41:21;;;;;;;;;;;;;;;;;;5134728;28;19954;-71
2023/02/09 04:43:47;;;;;;;;;;;;;;;;;;5134481;28;19950;-70
2023/02/09 04:46:13;;;;;;;;;;;;;;;;;;5135012;28;20407;-71
2023/02/09 04:48:39;;;;;;;;;;;;;;;;;;5135256;28;20478;-70
2023/02/09 04:51:05;;;;;;;;;;;;;;;;;;5134616;28;20003;-70
2023/02/09 04:53:31;;;;;;;;;;;;;;;;;;5134373;28;20434;-70
2023/02/09 04:55:57;;;;;;;;;;;;;;;;;;5134290;28;19972;-70
2023/02/09 05:01:07;;;;;;;;;;;;;;;;;;5134083;28;19972;-70
2023/02/09 05:03:33;;;;;;;;;;;;;;;;;;5134537;28;20403;-72
2023/02/09 05:05:59;;;;;;;;;;;;;;;;;;5134516;28;20412;-70
2023/02/09 05:08:25;;;;;;;;;;;;;;;;;;5134602;28;19950;-70
2023/02/09 05:10:51;;;;;;;;;;;;;;;;;;5134213;28;19958;-69
2023/02/09 05:13:17;;;;;;;;;;;;;;;;;;5134112;28;19968;-70
2023/02/09 05:15:42;;;;;;;;;;;;;;;;;;5134394;28;19971;-70
2023/02/09 05:18:08;;;;;;;;;;;;;;;;;;5134153;28;20005;-72
2023/02/09 05:20:35;;;;;;;;;;;;;;;;;;5134107;28;19945;-69
2023/02/09 05:23:01;;;;;;;;;;;;;;;;;;5134333;28;20008;-70
2023/02/09 05:25:27;;;;;;;;;;;;;;;;;;5136938;27;19946;-70
2023/02/09 05:27:53;;;;;;;;;;;;;;;;;;5137750;27;20001;-70
2023/02/09 05:30:19;;;;;;;;;;;;;;;;;;5137782;27;19953;-71
2023/02/09 05:32:44;;;;;;;;;;;;;;;;;;5138016;27;19947;-71
2023/02/09 05:35:10;;;;;;;;;;;;;;;;;;5137548;27;19971;-70
2023/02/09 05:37:36;;;;;;;;;;;;;;;;;;5137639;27;19958;-70
2023/02/09 05:40:02;;;;;;;;;;;;;;;;;;5137854;27;19959;-70
2023/02/09 05:42:28;;;;;;;;;;;;;;;;;;5137521;27;20324;-70
2023/02/09 05:44:54;;;;;;;;;;;;;;;;;;5137699;27;19950;-70
2023/02/09 05:47:20;;;;;;;;;;;;;;;;;;5137976;27;20405;-70
2023/02/09 05:49:46;;;;;;;;;;;;;;;;;;5137683;27;19948;-70
2023/02/09 05:52:12;;;;;;;;;;;;;;;;;;5137369;27;20366;-70
2023/02/09 05:54:38;;;;;;;;;;;;;;;;;;5137795;27;19971;-70
2023/02/09 05:57:03;;;;;;;;;;;;;;;;;;5137217;27;20031;-68
2023/02/09 05:59:29;;;;;;;;;;;;;;;;;;5137217;27;20434;-70
2023/02/09 06:01:55;;;;;;;;;;;;;;;;;;5137131;27;19991;-70
2023/02/09 06:04:21;;;;;;;;;;;;;;;;;;5137337;27;19980;-71
2023/02/09 06:06:47;;;;;;;;;;;;;;;;;;5137068;27;19997;-71
2023/02/09 06:09:13;;;;;;;;;;;;;;;;;;5137150;27;20029;-70
2023/02/09 06:11:39;;;;;;;;;;;;;;;;;;5137002;27;19980;-70
2023/02/09 06:14:05;;;;;;;;;;;;;;;;;;5136840;27;19968;-70
2023/02/09 06:16:31;;;;;;;;;;;;;;;;;;5137146;27;20397;-70
2023/02/09 06:18:57;;;;;;;;;;;;;;;;;;5136836;27;19999;-70
2023/02/09 06:21:22;;;;;;;;;;;;;;;;;;5118382;27;19997;-69
2023/02/09 06:23:48;;;;;;;;;;;;;;;;;;5137280;27;19952;-71
2023/02/09 06:26:14;;;;;;;;;;;;;;;;;;5136651;27;19989;-71
2023/02/09 06:28:40;;;;;;;;;;;;;;;;;;5136608;27;19949;-70
2023/02/09 06:31:06;;;;;;;;;;;;;;;;;;5136621;27;19950;-70
2023/02/09 06:33:32;;;;;;;;;;;;;;;;;;5136534;27;19958;-71
2023/02/09 06:35:58;;;;;;;;;;;;;;;;;;5136503;27;20347;-70
2023/02/09 06:38:24;;;;;;;;;;;;;;;;;;5136445;27;20469;-70
2023/02/09 06:40:50;;;;;;;;;;;;;;;;;;5136410;27;19949;-71
2023/02/09 06:43:15;;;;;;;;;;;;;;;;;;5136284;27;19959;-71
2023/02/09 06:45:41;;;;;;;;;;;;;;;;;;5136215;27;19950;-70
2023/02/09 06:48:07;;;;;;;;;;;;;;;;;;5136238;27;19984;-71
2023/02/09 06:50:33;;;;;;;;;;;;;;;;;;5137034;27;20409;-70
2023/02/09 06:52:59;;;;;;;;;;;;;;;;;;5136168;27;19961;-70
2023/02/09 06:55:25;;;;;;;;;;;;;;;;;;5136280;27;20445;-69
2023/02/09 06:57:51;;;;;;;;;;;;;;;;;;5136626;27;20301;-70
2023/02/09 07:00:17;;;;;;;;;;;;;;;;;;5135970;27;19951;-69
2023/02/09 07:02:43;;;;;;;;;;;;;;;;;;5136215;27;19954;-69
2023/02/09 07:05:09;;;;;;;;;;;;;;;;;;5135893;27;20049;-69
2023/02/09 07:07:35;;;;;;;;;;;;;;;;;;5135811;27;19991;-70
2023/02/09 07:10:01;;;;;;;;;;;;;;;;;;5136384;27;19990;-72
2023/02/09 07:12:26;;;;;;;;;;;;;;;;;;5135955;27;19951;-70
2023/02/09 07:14:52;;;;;;;;;;;;;;;;;;5135570;27;20494;-69
2023/02/09 07:17:18;;;;;;;;;;;;;;;;;;5135672;27;19951;-70
2023/02/09 07:19:45;;;;;;;;;;;;;;;;;;5135579;27;20323;-70
2023/02/09 07:22:11;;;;;;;;;;;;;;;;;;5135520;27;20041;-70
2023/02/09 07:24:37;;;;;;;;;;;;;;;;;;5135505;27;20457;-70
2023/02/09 07:27:02;;;;;;;;;;;;;;;;;;5135530;27;19956;-69
2023/02/09 07:29:28;;;;;;;;;;;;;;;;;;5135427;27;19962;-69
2023/02/09 07:31:54;;;;;;;;;;;;;;;;;;5135427;27;19954;-69
2023/02/09 07:34:20;;;;;;;;;;;;;;;;;;5135560;27;19997;-71
2023/02/09 07:36:46;;;;;;;;;;;;;;;;;;5135618;27;20000;-70
2023/02/09 07:39:12;;;;;;;;;;;;;;;;;;5135308;27;19951;-71
2023/02/09 07:41:38;;;;;;;;;;;;;;;;;;5135229;27;20045;-70
2023/02/09 07:44:04;;;;;;;;;;;;;;;;;;5135462;27;19994;-70
2023/02/09 07:46:29;;;;;;;;;;;;;;;;;;5135192;27;19954;-71
2023/02/09 07:48:56;;;;;;;;;;;;;;;;;;5134780;27;20082;-70
2023/02/09 07:51:27;;;;;;;;;;;;;;;;;;5130236;27;19967;-68
2023/02/09 07:53:53;;;;;;;;;;;;;;;;;;5135842;27;19956;-67
2023/02/09 07:56:19;;;;;;;;;;;;;;;;;;5129315;27;20411;-70
2023/02/09 07:58:45;;;;;;;;;;;;;;;;;;5131346;27;19958;-70
2023/02/09 08:01:11;;;;;;;;;;;;;;;;;;5131378;27;20320;-71
2023/02/09 08:03:36;;;;;;;;;;;;;;;;;;5133721;27;20037;-68
2023/02/09 08:06:02;;;;;;;;;;;;;;;;;;5133699;27;19955;-70
2023/02/09 08:08:28;;;;;;;;;;;;;;;;;;5134607;27;20010;-70
2023/02/09 08:10:54;;;;;;;;;;;;;;;;;;5128567;27;19959;-71
2023/02/09 08:13:20;;;;;;;;;;;;;;;;;;5126919;27;19971;-71
2023/02/09 08:15:46;;;;;;;;;;;;;;;;;;5127694;27;20588;-69
2023/02/09 08:18:12;;;;;;;;;;;;;;;;;;5130050;27;19963;-70
2023/02/09 08:20:38;;;;;;;;;;;;;;;;;;5130163;28;20308;-70
2023/02/09 08:23:04;;;;;;;;;;;;;;;;;;5122463;28;20362;-70
2023/02/09 08:25:29;;;;;;;;;;;;;;;;;;5134659;28;19958;-71
2023/02/09 08:27:55;;;;;;;;;;;;;;;;;;5133495;28;19955;-70
2023/02/09 08:30:21;;;;;;;;;;;;;;;;;;5133514;28;19981;-70
2023/02/09 08:32:47;;;;;;;;;;;;;;;;;;5134915;28;19945;-69
2023/02/09 08:35:13;;;;;;;;;;;;;;;;;;5125430;28;19978;-71
2023/02/09 08:37:39;;;;;;;;;;;;;;;;;;5134398;28;20033;-71
2023/02/09 08:40:05;;;;;;;;;;;;;;;;;;5134082;28;19959;-70
2023/02/09 08:42:31;;;;;;;;;;;;;;;;;;5113867;28;20006;-70
2023/02/09 08:44:57;;;;;;;;;;;;;;;;;;5128081;28;19957;-72
2023/02/09 08:47:22;;;;;;;;;;;;;;;;;;5134064;28;20366;-73
2023/02/09 08:49:49;;;;;;;;;;;;;;;;;;5117792;28;19958;-71
2023/02/09 08:52:15;;;;;;;;;;;;;;;;;;5123053;28;19954;-72
2023/02/09 08:54:41;;;;;;;;;;;;;;;;;;5134132;28;20391;-71
2023/02/09 08:57:07;;;;;;;;;;;;;;;;;;5134333;28;19951;-71
2023/02/09 08:59:33;;;;;;;;;;;;;;;;;;5126713;27;20382;-72
2023/02/09 09:01:59;;;;;;;;;;;;;;;;;;5117792;27;19984;-74
2023/02/09 09:04:25;;;;;;;;;;;;;;;;;;5118160;27;19994;-73
2023/02/09 09:06:51;;;;;;;;;;;;;;;;;;5137055;27;20006;-70
2023/02/09 09:09:16;;;;;;;;;;;;;;;;;;5132433;27;19994;-69
2023/02/09 09:11:42;;;;;;;;;;;;;;;;;;5118989;27;19958;-71
2023/02/09 09:14:08;;;;;;;;;;;;;;;;;;5120250;27;19979;-69
2023/02/09 09:16:34;;;;;;;;;;;;;;;;;;5132977;27;20054;-70
2023/02/09 09:19:00;;;;;;;;;;;;;;;;;;5131792;27;19964;-69
2023/02/09 09:21:26;;;;;;;;;;;;;;;;;;5135996;27;19961;-69
2023/02/09 09:23:52;;;;;;;;;;;;;;;;;;5133789;27;19953;-70
2023/02/09 09:26:18;;;;;;;;;;;;;;;;;;5137854;27;19951;-70
2023/02/09 09:28:44;;;;;;;;;;;;;;;;;;5136496;27;19962;-69
2023/02/09 09:31:10;;;;;;;;;;;;;;;;;;5138376;27;20003;-69
2023/02/09 09:33:36;;;;;;;;;;;;;;;;;;5137561;27;19955;-71
2023/02/09 09:36:01;;;;;;;;;;;;;;;;;;5137891;27;20463;-71
2023/02/09 09:38:27;;;;;;;;;;;;;;;;;;5137515;27;20472;-71
2023/02/09 09:40:53;;;;;;;;;;;;;;;;;;5119090;27;20315;-70
2023/02/09 09:43:19;;;;;;;;;;;;;;;;;;5123847;27;19971;-70
2023/02/09 09:45:45;;;;;;;;;;;;;;;;;;5137440;27;19955;-70
2023/02/09 09:48:11;;;;;;;;;;;;;;;;;;5137445;27;19978;-71
2023/02/09 09:50:37;;;;;;;;;;;;;;;;;;5125860;27;20730;-70
2023/02/09 09:53:03;;;;;;;;;;;;;;;;;;5127489;27;20432;-71
2023/02/09 09:55:29;;;;;;;;;;;;;;;;;;5121008;27;19990;-70
2023/02/09 09:57:54;;;;;;;;;;;;;;;;;;5128924;27;20420;-71
2023/02/09 10:00:20;;;;;;;;;;;;;;;;;;5135402;27;19956;-70
2023/02/09 10:02:46;;;;;;;;;;;;;;;;;;5118534;27;20394;-71
2023/02/09 10:05:12;;;;;;;;;;;;;;;;;;5116458;27;19990;-70
2023/02/09 10:07:38;;;;;;;;;;;;;;;;;;5134801;27;19960;-71
2023/02/09 10:10:04;;;;;;;;;;;;;;;;;;5134893;27;20032;-70
2023/02/09 10:12:30;;;;;;;;;;;;;;;;;;5134015;27;19951;-71
2023/02/09 10:14:56;;;;;;;;;;;;;;;;;;5118593;27;20019;-71
2023/02/09 10:17:22;;;;;;;;;;;;;;;;;;5116292;27;20418;-70
2023/02/09 10:19:48;;;;;;;;;;;;;;;;;;5133501;27;20374;-72
2023/02/09 10:22:14;;;;;;;;;;;;;;;;;;5124591;27;19955;-71
2023/02/09 10:24:40;;;;;;;;;;;;;;;;;;5124058;27;19959;-72
2023/02/09 10:27:07;;;;;;;;;;;;;;;;;;5134441;27;19965;-71
2023/02/09 10:29:34;;;;;;;;;;;;;;;;;;5136950;27;20495;-73
2023/02/09 10:31:59;;;;;;;;;;;;;;;;;;5135603;27;20093;-70
2023/02/09 10:34:25;;;;;;;;;;;;;;;;;;5134590;27;19993;-72
2023/02/09 10:36:51;;;;;;;;;;;;;;;;;;5137065;27;19955;-69
2023/02/09 10:39:17;;;;;;;;;;;;;;;;;;5136392;27;19951;-70
2023/02/09 10:41:43;;;;;;;;;;;;;;;;;;5136523;27;20034;-72
2023/02/09 10:44:09;;;;;;;;;;;;;;;;;;5134227;27;19984;-71
2023/02/09 10:46:35;;;;;;;;;;;;;;;;;;5131207;27;20050;-70
2023/02/09 10:49:02;;;;;;;;;;;;;;;;;;5121597;27;19983;-73
2023/02/09 10:51:28;;;;;;;;;;;;;;;;;;5129887;27;19954;-71
2023/02/09 10:53:53;;;;;;;;;;;;;;;;;;5115644;28;19951;-72
2023/02/09 10:56:19;;;;;;;;;;;;;;;;;;5127905;27;19976;-73
2023/02/09 10:58:45;;;;;;;;;;;;;;;;;;5135247;27;20103;-69
2023/02/09 11:01:11;;;;;;;;;;;;;;;;;;5130682;27;19959;-74
2023/02/09 11:03:37;;;;;;;;;;;;;;;;;;5115111;27;19955;-69
2023/02/09 11:06:03;;;;;;;;;;;;;;;;;;5115653;28;19961;-70
2023/02/09 11:08:30;;;;;;;;;;;;;;;;;;5114987;28;20029;-73
2023/02/09 11:10:56;;;;;;;;;;;;;;;;;;5099015;27;20072;-72
2023/02/09 11:13:22;;;;;;;;;;;;;;;;;;5114977;28;20064;-70
2023/02/09 11:15:48;;;;;;;;;;;;;;;;;;5113707;27;19970;-70
2023/02/09 11:18:16;;;;;;;;;;;;;;;;;;5132970;27;20278;-71
2023/02/09 11:20:41;;;;;;;;;;;;;;;;;;5135852;27;19973;-70
2023/02/09 11:23:07;;;;;;;;;;;;;;;;;;5135061;27;19950;-72
2023/02/09 11:25:33;;;;;;;;;;;;;;;;;;5135850;27;19996;-72
2023/02/09 11:27:59;;;;;;;;;;;;;;;;;;5135510;27;19955;-71
2023/02/09 11:30:25;;;;;;;;;;;;;;;;;;5135570;27;19958;-71
2023/02/09 11:32:51;;;;;;;;;;;;;;;;;;5133456;27;20443;-71
2023/02/09 11:35:20;;;;;;;;;;;;;;;;;;5135299;27;20062;-71
2023/02/09 11:37:45;;;;;;;;;;;;;;;;;;5133673;27;19973;-70
2023/02/09 11:40:12;;;;;;;;;;;;;;;;;;5118334;27;20430;-69
2023/02/09 11:42:44;;;;;;;;;;;;;;;;;;5115220;28;19984;-69
2023/02/09 11:45:10;;;;;;;;;;;;;;;;;;5114657;28;20038;-69
2023/02/09 11:47:36;;;;;;;;;;;;;;;;;;5114936;28;19994;-69
2023/02/09 11:50:01;;;;;;;;;;;;;;;;;;5114562;28;20400;-69
2023/02/09 11:52:27;;;;;;;;;;;;;;;;;;5114505;28;19943;-70
2023/02/09 11:54:53;;;;;;;;;;;;;;;;;;5114995;28;19970;-70
2023/02/09 11:57:20;;;;;;;;;;;;;;;;;;5114738;28;20005;-70
2023/02/09 11:59:46;;;;;;;;;;;;;;;;;;5114960;28;19957;-70
2023/02/09 12:02:12;;;;;;;;;;;;;;;;;;5114730;28;20004;-69
2023/02/09 12:04:38;;;;;;;;;;;;;;;;;;5114960;28;19955;-69
2023/02/09 12:07:04;;;;;;;;;;;;;;;;;;5114293;28;19945;-69
2023/02/09 12:09:30;;;;;;;;;;;;;;;;;;5114241;28;19988;-70
2023/02/09 12:11:56;;;;;;;;;;;;;;;;;;5114511;28;19963;-70
2023/02/09 12:14:22;;;;;;;;;;;;;;;;;;5114164;28;20392;-70
2023/02/09 12:16:48;;;;;;;;;;;;;;;;;;5114481;28;19965;-69
2023/02/09 12:19:14;;;;;;;;;;;;;;;;;;5114159;28;19948;-69
2023/02/09 12:21:40;;;;;;;;;;;;;;;;;;5114440;28;19978;-69
2023/02/09 12:24:06;;;;;;;;;;;;;;;;;;5114363;28;19962;-70
2023/02/09 12:26:32;;;;;;;;;;;;;;;;;;5114335;28;19990;-69
2023/02/09 12:29:03;;;;;;;;;;;;;;;;;;5114352;28;19955;-70
2023/02/09 12:31:29;;;;;;;;;;;;;;;;;;5095872;28;19988;-69
2023/02/09 12:33:55;;;;;;;;;;;;;;;;;;5116287;28;19996;-70
2023/02/09 12:36:21;;;;;;;;;;;;;;;;;;5118487;28;20425;-69
2023/02/09 12:38:46;;;;;;;;;;;;;;;;;;5118770;28;19951;-69
2023/02/09 12:41:12;;;;;;;;;;;;;;;;;;5118072;28;20367;-70
2023/02/09 12:43:38;;;;;;;;;;;;;;;;;;5118310;28;20376;-70
2023/02/09 12:46:04;;;;;;;;;;;;;;;;;;5118292;28;19951;-69
2023/02/09 12:48:30;;;;;;;;;;;;;;;;;;5118337;28;19951;-69
2023/02/09 12:50:56;;;;;;;;;;;;;;;;;;5117999;28;19991;-70
2023/02/09 12:53:22;;;;;;;;;;;;;;;;;;5118484;28;20407;-70
2023/02/09 12:55:48;;;;;;;;;;;;;;;;;;5117820;28;19991;-69
2023/02/09 12:58:14;;;;;;;;;;;;;;;;;;5118120;28;20036;-71
2023/02/09 13:00:40;;;;;;;;;;;;;;;;;;5117812;28;20299;-69
2023/02/09 13:03:06;;;;;;;;;;;;;;;;;;5117817;28;19958;-70
2023/02/09 13:05:32;;;;;;;;;;;;;;;;;;5117649;28;19955;-69
2023/02/09 13:07:58;;;;;;;;;;;;;;;;;;5118386;28;20418;-70
2023/02/09 13:10:24;;;;;;;;;;;;;;;;;;5117215;28;19986;-70
2023/02/09 13:12:50;;;;;;;;;;;;;;;;;;5116839;27;20002;-69
2023/02/09 13:15:16;;;;;;;;;;;;;;;;;;5117742;27;19972;-69
2023/02/09 13:17:42;;;;;;;;;;;;;;;;;;5117865;28;19953;-76
2023/02/09 13:20:08;;;;;;;;;;;;;;;;;;5126902;27;20006;-74
2023/02/09 13:22:34;;;;;;;;;;;;;;;;;;5136075;27;19957;-73
2023/02/09 13:25:00;;;;;;;;;;;;;;;;;;5104852;28;20350;-70
2023/02/09 13:27:26;;;;;;;;;;;;;;;;;;5117858;28;20043;-69
2023/02/09 13:29:52;;;;;;;;;;;;;;;;;;5117493;28;19955;-70
2023/02/09 13:32:19;;;;;;;;;;;;;;;;;;5116707;28;20425;-70
2023/02/09 13:34:45;;;;;;;;;;;;;;;;;;5123534;27;19967;-71
2023/02/09 13:37:10;;;;;;;;;;;;;;;;;;5137650;27;19970;-71
2023/02/09 13:39:36;;;;;;;;;;;;;;;;;;5130966;27;19991;-72
2023/02/09 13:42:02;;;;;;;;;;;;;;;;;;5117290;28;19943;-74
2023/02/09 13:44:28;;;;;;;;;;;;;;;;;;5116718;28;20394;-69
2023/02/09 13:46:54;;;;;;;;;;;;;;;;;;5117042;28;19945;-70
2023/02/09 13:49:20;;;;;;;;;;;;;;;;;;5117236;28;19951;-69
2023/02/09 13:51:46;;;;;;;;;;;;;;;;;;5117147;28;19958;-69
2023/02/09 13:54:12;;;;;;;;;;;;;;;;;;5122755;27;19955;-69
2023/02/09 13:56:38;;;;;;;;;;;;;;;;;;5137242;27;19978;-72
2023/02/09 13:59:04;;;;;;;;;;;;;;;;;;5137854;27;20398;-71
2023/02/09 14:01:30;;;;;;;;;;;;;;;;;;5137240;27;20042;-70
2023/02/09 14:03:56;;;;;;;;;;;;;;;;;;5137693;27;19945;-70
2023/02/09 14:06:22;;;;;;;;;;;;;;;;;;5137213;27;19951;-71
2023/02/09 14:08:48;;;;;;;;;;;;;;;;;;5120662;27;20017;-70
2023/02/09 14:11:14;;;;;;;;;;;;;;;;;;5130494;27;19970;-70
2023/02/09 14:13:39;;;;;;;;;;;;;;;;;;5133822;27;19981;-70
2023/02/09 14:16:06;;;;;;;;;;;;;;;;;;5132181;27;20530;-70
2023/02/09 14:18:32;;;;;;;;;;;;;;;;;;5123871;27;20012;-70
2023/02/09 14:20:58;;;;;;;;;;;;;;;;;;5132069;27;20367;-70
2023/02/09 14:23:24;;;;;;;;;;;;;;;;;;5116522;28;20401;-71
2023/02/09 14:25:50;;;;;;;;;;;;;;;;;;5115885;28;20062;-71
2023/02/09 14:28:15;;;;;;;;;;;;;;;;;;5116150;28;19999;-71
2023/02/09 14:30:41;;;;;;;;;;;;;;;;;;5116444;28;20002;-71
2023/02/09 14:33:07;;;;;;;;;;;;;;;;;;5116359;28;19963;-70
2023/02/09 14:35:33;;;;;;;;;;;;;;;;;;5115998;28;19969;-69
2023/02/09 14:37:59;;;;;;;;;;;;;;;;;;5116378;27;19969;-70
2023/02/09 14:40:25;;;;;;;;;;;;;;;;;;5117239;27;19959;-70
2023/02/09 14:42:51;;;;;;;;;;;;;;;;;;5115965;27;19946;-71
2023/02/09 14:45:17;;;;;;;;;;;;;;;;;;5116124;28;19994;-71
2023/02/09 14:47:43;;;;;;;;;;;;;;;;;;5116298;27;19955;-70
2023/02/09 14:50:08;;;;;;;;;;;;;;;;;;5136834;27;19954;-73
2023/02/09 14:52:37;;;;;;;;;;;;;;;;;;5136571;27;19999;-70
2023/02/09 14:55:03;;;;;;;;;;;;;;;;;;5136171;27;19970;-70
2023/02/09 14:57:29;;;;;;;;;;;;;;;;;;5136114;27;20002;-70
2023/02/09 14:59:55;;;;;;;;;;;;;;;;;;5136709;27;19951;-71
2023/02/09 15:02:22;;;;;;;;;;;;;;;;;;5117643;27;20419;-70
2023/02/09 15:04:48;;;;;;;;;;;;;;;;;;5136761;27;20354;-71
2023/02/09 15:07:14;;;;;;;;;;;;;;;;;;5129822;27;19965;-71
2023/02/09 15:09:40;;;;;;;;;;;;;;;;;;5135680;27;19979;-70
2023/02/09 15:12:06;;;;;;;;;;;;;;;;;;5134771;27;19958;-71
2023/02/09 15:14:32;;;;;;;;;;;;;;;;;;5128111;27;19974;-74
2023/02/09 15:16:58;;;;;;;;;;;;;;;;;;5115199;28;20066;-69
2023/02/09 15:19:24;;;;;;;;;;;;;;;;;;5115344;28;20367;-69
2023/02/09 15:21:50;;;;;;;;;;;;;;;;;;5115532;27;19953;-72
2023/02/09 15:24:15;;;;;;;;;;;;;;;;;;5135439;27;20002;-72
2023/02/09 15:26:41;;;;;;;;;;;;;;;;;;5135498;27;20416;-71
2023/02/09 15:29:07;;;;;;;;;;;;;;;;;;5135522;27;19952;-71
2023/02/09 15:31:33;;;;;;;;;;;;;;;;;;5135588;27;19950;-71
2023/02/09 15:33:59;;;;;;;;;;;;;;;;;;5116974;27;20388;-72
2023/02/09 15:36:25;;;;;;;;;;;;;;;;;;5119902;27;20060;-69
2023/02/09 15:38:51;;;;;;;;;;;;;;;;;;5115240;27;20030;-71
2023/02/09 15:49:45;;;;;;;;;;;;;;;;;;5090227;28;19958;-72
2023/02/09 15:52:10;;;;;;;;;;;;;;;;;;5114573;28;20087;-67
2023/02/09 15:54:36;;;;;;;;;;;;;;;;;;5114691;27;19950;-69
2023/02/09 15:57:02;;;;;;;;;;;;;;;;;;5114448;28;19951;-71
2023/02/09 15:59:28;;;;;;;;;;;;;;;;;;5129642;27;19961;-69
2023/02/09 16:01:54;;;;;;;;;;;;;;;;;;5133643;27;19959;-70
2023/02/09 16:04:20;;;;;;;;;;;;;;;;;;5134914;27;19955;-68
2023/02/09 16:06:46;;;;;;;;;;;;;;;;;;5134890;27;19950;-69
2023/02/09 16:09:12;;;;;;;;;;;;;;;;;;5128711;27;19983;-70
2023/02/09 16:11:39;;;;;;;;;;;;;;;;;;5114152;28;19955;-70
2023/02/09 16:14:05;;;;;;;;;;;;;;;;;;5134609;27;20039;-70
2023/02/09 16:16:31;;;;;;;;;;;;;;;;;;5134758;27;20359;-69
2023/02/09 16:18:57;;;;;;;;;;;;;;;;;;5134779;27;19987;-69
2023/02/09 16:21:23;;;;;;;;;;;;;;;;;;5135086;27;19943;-68
2023/02/09 16:23:49;;;;;;;;;;;;;;;;;;5116502;28;20051;-67
2023/02/09 16:26:15;;;;;;;;;;;;;;;;;;5118314;28;20546;-67
2023/02/09 16:28:41;;;;;;;;;;;;;;;;;;5114101;28;19957;-67
2023/02/09 16:31:07;;;;;;;;;;;;;;;;;;5114360;28;19995;-67
2023/02/09 16:33:34;;;;;;;;;;;;;;;;;;5114032;28;19984;-67
2023/02/09 16:36:00;;;;;;;;;;;;;;;;;;5114192;28;19984;-68
2023/02/09 16:38:26;;;;;;;;;;;;;;;;;;5114524;28;19943;-68
2023/02/09 16:40:52;;;;;;;;;;;;;;;;;;5114278;28;20022;-67
2023/02/09 16:43:18;;;;;;;;;;;;;;;;;;5114515;28;19954;-67
2023/02/09 16:45:44;;;;;;;;;;;;;;;;;;5113935;28;20414;-68
2023/02/09 16:48:10;;;;;;;;;;;;;;;;;;5113955;28;20004;-67
2023/02/09 16:50:36;;;;;;;;;;;;;;;;;;5113955;28;19957;-67